createdAt,value
2018-04-24T00:00:31.038Z,84.30
2018-04-24T00:03:00.062Z,84.40
2018-04-24T00:05:28.737Z,84.40
2018-04-24T00:07:57.006Z,84.40
2018-04-24T00:10:25.266Z,84.70
2018-04-24T00:12:53.558Z,84.80
2018-04-24T00:15:21.806Z,84.80
2018-04-24T00:17:50.074Z,84.60
2018-04-24T00:20:18.332Z,85.10
2018-04-24T00:22:46.659Z,84.60
2018-04-24T00:25:14.900Z,84.50
2018-04-24T00:27:43.187Z,84.50
2018-04-24T00:30:11.462Z,84.30
2018-04-24T00:32:39.705Z,85.00
2018-04-24T00:35:08.976Z,84.90
2018-04-24T00:37:37.245Z,84.60
2018-04-24T00:40:05.500Z,85.50
2018-04-24T00:42:33.763Z,84.90
2018-04-24T00:45:02.118Z,85.00
2018-04-24T00:47:30.862Z,85.20
2018-04-24T00:49:59.132Z,85.90
2018-04-24T00:52:27.391Z,85.60
2018-04-24T00:54:55.666Z,85.50
2018-04-24T00:57:23.951Z,85.20
2018-04-24T00:59:52.213Z,85.40
2018-04-24T01:02:20.486Z,85.70
2018-04-24T01:04:48.755Z,85.70
2018-04-24T01:07:17.045Z,86.60
2018-04-24T01:09:45.309Z,86.20
2018-04-24T01:12:13.568Z,85.80
2018-04-24T01:14:41.857Z,85.60
2018-04-24T01:17:10.141Z,86.60
2018-04-24T01:19:38.398Z,86.30
2018-04-24T01:22:06.658Z,85.90
2018-04-24T01:24:34.910Z,85.80
2018-04-24T01:27:03.186Z,85.50
2018-04-24T01:29:31.455Z,85.60
2018-04-24T01:31:59.695Z,85.50
2018-04-24T01:34:27.981Z,85.70
2018-04-24T01:36:56.268Z,85.80
2018-04-24T01:39:25.071Z,86.30
2018-04-24T01:41:53.357Z,86.00
2018-04-24T01:44:22.399Z,86.40
2018-04-24T01:46:50.661Z,85.80
2018-04-24T01:49:19.716Z,85.90
2018-04-24T01:51:47.959Z,85.80
2018-04-24T01:54:16.221Z,85.90
2018-04-24T01:56:44.494Z,85.80
2018-04-24T01:59:12.746Z,85.70
2018-04-24T02:01:41.801Z,86.60
2018-04-24T02:04:10.071Z,86.40
2018-04-24T02:06:38.330Z,86.60
2018-04-24T02:09:06.605Z,86.60
2018-04-24T02:11:34.875Z,86.30
2018-04-24T02:14:03.174Z,86.50
2018-04-24T02:16:31.435Z,87.00
2018-04-24T02:18:59.742Z,87.20
2018-04-24T02:21:28.002Z,87.20
2018-04-24T02:23:56.248Z,86.80
2018-04-24T02:26:24.554Z,86.60
2018-04-24T02:28:52.801Z,87.20
2018-04-24T02:31:21.100Z,86.40
2018-04-24T02:33:49.340Z,86.30
2018-04-24T02:36:18.368Z,86.20
2018-04-24T02:38:46.628Z,86.20
2018-04-24T02:41:14.894Z,86.40
2018-04-24T02:43:43.185Z,86.90
2018-04-24T02:46:11.430Z,86.50
2018-04-24T02:48:40.457Z,87.20
2018-04-24T02:51:08.714Z,87.20
2018-04-24T02:53:36.968Z,87.30
2018-04-24T02:56:05.237Z,87.50
2018-04-24T02:58:33.538Z,88.30
2018-04-24T03:01:02.566Z,88.00
2018-04-24T03:03:30.817Z,88.00
2018-04-24T03:05:59.836Z,87.60
2018-04-24T03:08:28.079Z,87.60
2018-04-24T03:10:56.388Z,87.70
2018-04-24T03:13:24.635Z,87.40
2018-04-24T03:15:53.218Z,87.20
2018-04-24T03:18:21.490Z,87.00
2018-04-24T03:20:49.773Z,87.10
2018-04-24T03:23:18.058Z,87.30
2018-04-24T03:25:46.323Z,88.00
2018-04-24T03:28:15.355Z,87.50
2018-04-24T03:30:43.631Z,87.50
2018-04-24T03:33:11.891Z,88.00
2018-04-24T03:35:40.163Z,87.80
2018-04-24T03:38:08.454Z,87.70
2018-04-24T03:40:36.719Z,87.20
2018-04-24T03:43:04.973Z,87.70
2018-04-24T03:45:33.254Z,87.60
2018-04-24T03:48:01.524Z,88.30
2018-04-24T03:50:30.620Z,88.30
2018-04-24T03:52:58.898Z,88.30
2018-04-24T03:55:27.188Z,88.50
2018-04-24T03:57:55.517Z,88.70
2018-04-24T04:00:23.791Z,88.90
2018-04-24T04:02:52.061Z,88.70
2018-04-24T04:05:20.315Z,88.60
2018-04-24T04:07:48.584Z,88.30
2018-04-24T04:10:16.893Z,88.30
2018-04-24T04:12:45.216Z,88.60
2018-04-24T04:15:13.488Z,88.60
2018-04-24T04:17:54.466Z,88.30
2018-04-24T04:20:34.524Z,88.30
2018-04-24T04:23:15.299Z,88.00
2018-04-24T04:25:43.554Z,88.20
2018-04-24T04:28:12.576Z,88.50
2018-04-24T04:30:40.855Z,88.50
2018-04-24T04:33:09.086Z,88.40
2018-04-24T04:35:38.118Z,88.60
2018-04-24T04:38:06.373Z,88.50
2018-04-24T04:40:34.629Z,88.90
2018-04-24T04:43:02.994Z,88.20
2018-04-24T04:45:31.250Z,88.30
2018-04-24T04:50:34.949Z,87.90
2018-04-24T04:53:03.210Z,87.90
2018-04-24T04:55:31.477Z,87.80
2018-04-24T04:57:59.770Z,87.50
2018-04-24T05:00:28.025Z,87.40
2018-04-24T05:02:57.045Z,86.60
2018-04-24T05:05:25.358Z,86.60
2018-04-24T05:07:53.613Z,87.80
2018-04-24T05:10:21.883Z,87.90
2018-04-24T05:12:50.156Z,87.30
2018-04-24T05:15:18.472Z,86.90
2018-04-24T05:17:46.723Z,87.20
2018-04-24T05:20:15.021Z,86.80
2018-04-24T05:22:43.273Z,86.50
2018-04-24T05:25:11.537Z,86.30
2018-04-24T05:27:39.791Z,86.40
2018-04-24T05:30:08.081Z,86.40
2018-04-24T05:32:36.328Z,85.90
2018-04-24T05:35:05.350Z,86.80
2018-04-24T05:37:33.633Z,86.80
2018-04-24T05:40:01.876Z,87.20
2018-04-24T05:42:30.921Z,86.40
2018-04-24T05:44:59.178Z,87.00
2018-04-24T05:47:27.498Z,87.60
2018-04-24T05:49:56.106Z,86.60
2018-04-24T05:52:25.167Z,85.80
2018-04-24T05:54:53.429Z,85.70
2018-04-24T05:57:21.702Z,85.50
2018-04-24T05:59:49.979Z,85.50
2018-04-24T06:02:18.982Z,84.80
2018-04-24T06:04:47.288Z,84.20
2018-04-24T06:07:15.530Z,84.10
2018-04-24T06:09:43.791Z,83.10
2018-04-24T06:12:12.070Z,82.90
2018-04-24T06:14:40.320Z,82.80
2018-04-24T06:17:08.594Z,82.10
2018-04-24T06:19:37.606Z,81.90
2018-04-24T06:22:05.894Z,81.90
2018-04-24T06:24:34.197Z,82.30
2018-04-24T06:27:02.451Z,81.90
2018-04-24T06:29:30.714Z,82.60
2018-04-24T06:31:58.985Z,81.90
2018-04-24T06:34:27.232Z,81.60
2018-04-24T06:36:56.268Z,80.30
2018-04-24T06:39:24.566Z,80.30
2018-04-24T06:41:52.821Z,80.00
2018-04-24T06:44:21.122Z,78.30
2018-04-24T06:46:49.496Z,74.00
2018-04-24T06:49:17.754Z,69.20
2018-04-24T06:51:46.014Z,64.70
2018-04-24T06:54:14.299Z,60.40
2018-04-24T06:56:42.538Z,59.00
2018-04-24T06:59:19.090Z,53.70
2018-04-24T07:01:48.015Z,53.60
2018-04-24T07:04:16.357Z,48.00
2018-04-24T07:06:44.618Z,42.90
2018-04-24T07:09:12.893Z,40.60
2018-04-24T07:11:41.175Z,38.70
2018-04-24T07:14:09.457Z,37.80
2018-04-24T07:16:37.718Z,37.00
2018-04-24T07:19:06.008Z,36.60
2018-04-24T07:21:34.281Z,36.40
2018-04-24T07:24:02.540Z,34.90
2018-04-24T07:26:30.839Z,34.60
2018-04-24T07:28:59.130Z,34.00
2018-04-24T07:31:28.193Z,33.30
2018-04-24T07:33:56.442Z,33.20
2018-04-24T07:36:24.717Z,32.20
2018-04-24T07:38:52.976Z,32.20
2018-04-24T07:41:21.265Z,31.50
2018-04-24T07:43:49.540Z,30.00
2018-04-24T07:46:17.822Z,29.30
2018-04-24T07:48:46.101Z,29.10
2018-04-24T07:51:14.368Z,30.00
2018-04-24T07:53:42.767Z,29.20
2018-04-24T07:56:11.090Z,28.20
2018-04-24T07:58:40.113Z,28.20
2018-04-24T08:01:09.355Z,28.20
2018-04-24T08:03:37.651Z,32.00
2018-04-24T08:06:05.910Z,36.10
2018-04-24T08:08:34.174Z,38.70
2018-04-24T08:11:02.462Z,39.20
2018-04-24T08:13:30.723Z,41.60
2018-04-24T08:15:59.028Z,41.00
2018-04-24T08:18:27.288Z,42.50
2018-04-24T08:20:55.612Z,40.30
2018-04-24T08:23:24.736Z,40.40
2018-04-24T08:25:53.010Z,40.30
2018-04-24T08:28:21.289Z,39.70
2018-04-24T08:30:49.549Z,38.30
2018-04-24T08:33:17.832Z,38.30
2018-04-24T08:35:46.111Z,42.10
2018-04-24T08:38:14.366Z,45.30
2018-04-24T08:40:42.615Z,49.40
2018-04-24T08:43:11.599Z,52.20
2018-04-24T08:45:39.865Z,53.30
2018-04-24T08:48:08.924Z,54.90
2018-04-24T08:50:37.174Z,55.40
2018-04-24T08:53:06.642Z,52.70
2018-04-24T08:55:34.898Z,52.70
2018-04-24T08:58:03.153Z,52.90
2018-04-24T09:00:31.425Z,52.50
2018-04-24T09:02:59.706Z,52.50
2018-04-24T09:05:28.038Z,51.80
2018-04-24T09:07:56.382Z,51.00
2018-04-24T09:10:24.621Z,50.40
2018-04-24T09:12:52.916Z,51.60
2018-04-24T09:15:21.166Z,53.00
2018-04-24T09:17:50.191Z,52.30
2018-04-24T09:20:18.574Z,52.30
2018-04-24T09:22:46.836Z,52.40
2018-04-24T09:25:15.119Z,52.10
2018-04-24T09:27:43.387Z,51.50
2018-04-24T09:30:11.658Z,50.80
2018-04-24T09:32:39.937Z,49.70
2018-04-24T09:35:08.352Z,49.70
2018-04-24T09:37:36.644Z,49.80
2018-04-24T09:40:04.891Z,49.70
2018-04-24T09:42:33.178Z,49.20
2018-04-24T09:45:01.469Z,49.60
2018-04-24T09:47:29.782Z,49.80
2018-04-24T09:49:58.790Z,51.30
2018-04-24T09:52:27.043Z,50.80
2018-04-24T09:54:55.314Z,51.90
2018-04-24T09:57:24.346Z,53.40
2018-04-24T09:59:52.635Z,53.40
2018-04-24T10:02:21.000Z,51.70
2018-04-24T10:04:49.200Z,52.20
2018-04-24T10:07:17.488Z,51.80
2018-04-24T10:09:45.746Z,53.00
2018-04-24T10:12:14.023Z,52.50
2018-04-24T10:14:43.066Z,52.50
2018-04-24T10:17:11.322Z,52.40
2018-04-24T10:19:39.709Z,52.00
2018-04-24T10:22:07.951Z,51.90
2018-04-24T10:24:36.212Z,52.40
2018-04-24T10:27:04.481Z,52.40
2018-04-24T10:29:32.736Z,51.10
2018-04-24T10:32:01.112Z,51.40
2018-04-24T10:34:29.313Z,51.00
2018-04-24T10:36:57.591Z,50.50
2018-04-24T10:39:25.890Z,50.30
2018-04-24T10:41:54.157Z,49.50
2018-04-24T10:44:22.449Z,49.10
2018-04-24T10:46:50.706Z,47.60
2018-04-24T10:49:18.982Z,47.30
2018-04-24T10:51:47.273Z,47.40
2018-04-24T10:54:15.528Z,46.80
2018-04-24T10:56:43.848Z,46.00
2018-04-24T10:59:12.141Z,46.70
2018-04-24T11:01:40.379Z,47.60
2018-04-24T11:04:08.689Z,48.50
2018-04-24T11:06:36.990Z,49.40
2018-04-24T11:09:06.005Z,47.80
2018-04-24T11:11:34.269Z,47.80
2018-04-24T11:14:02.528Z,46.80
2018-04-24T11:16:31.575Z,46.70
2018-04-24T11:18:59.860Z,46.70
2018-04-24T11:21:28.163Z,47.40
2018-04-24T11:23:57.171Z,46.20
2018-04-24T11:26:26.185Z,46.10
2018-04-24T11:28:54.466Z,46.10
2018-04-24T11:31:22.738Z,45.20
2018-04-24T11:33:51.011Z,46.70
2018-04-24T11:36:19.325Z,46.30
2018-04-24T11:38:47.572Z,45.90
2018-04-24T11:41:16.127Z,45.80
2018-04-24T11:43:44.376Z,45.50
2018-04-24T11:46:12.648Z,45.70
2018-04-24T11:48:41.855Z,47.40
2018-04-24T11:51:10.119Z,51.20
2018-04-24T11:53:38.394Z,50.70
2018-04-24T11:56:06.647Z,46.50
2018-04-24T11:58:34.946Z,44.20
2018-04-24T12:01:03.216Z,49.00
2018-04-24T12:03:31.473Z,51.20
2018-04-24T12:05:59.753Z,51.70
2018-04-24T12:08:28.057Z,51.20
2018-04-24T12:10:56.371Z,51.70
2018-04-24T12:13:24.733Z,52.40
2018-04-24T12:15:53.039Z,53.50
2018-04-24T12:18:21.320Z,54.10
2018-04-24T12:20:49.618Z,54.50
2018-04-24T12:23:18.643Z,54.50
2018-04-24T12:25:46.943Z,54.50
2018-04-24T12:28:15.990Z,54.40
2018-04-24T12:30:44.264Z,54.30
2018-04-24T12:33:12.525Z,53.80
2018-04-24T12:35:40.818Z,53.50
2018-04-24T12:38:09.088Z,53.40
2018-04-24T12:40:37.350Z,52.90
2018-04-24T12:43:05.649Z,51.50
2018-04-24T12:45:33.994Z,50.70
2018-04-24T12:48:02.247Z,51.00
2018-04-24T12:50:30.493Z,52.70
2018-04-24T12:52:58.750Z,54.10
2018-04-24T12:55:27.065Z,54.50
2018-04-24T12:57:55.348Z,55.00
2018-04-24T13:00:23.591Z,55.50
2018-04-24T13:02:51.867Z,56.60
2018-04-24T13:05:20.178Z,56.80
2018-04-24T13:07:49.206Z,56.70
2018-04-24T13:10:17.494Z,56.60
2018-04-24T13:12:45.771Z,56.40
2018-04-24T13:15:14.032Z,56.20
2018-04-24T13:17:42.310Z,55.60
2018-04-24T13:20:10.590Z,54.80
2018-04-24T13:22:38.918Z,54.60
2018-04-24T13:25:07.202Z,54.60
2018-04-24T13:27:35.436Z,55.20
2018-04-24T13:30:03.760Z,55.60
2018-04-24T13:32:32.015Z,55.50
2018-04-24T13:35:00.352Z,55.50
2018-04-24T13:37:28.614Z,55.50
2018-04-24T13:39:56.963Z,55.10
2018-04-24T13:42:25.281Z,54.80
2018-04-24T13:44:53.555Z,54.60
2018-04-24T13:47:23.695Z,53.80
2018-04-24T13:49:51.963Z,53.70
2018-04-24T13:52:20.276Z,53.90
2018-04-24T13:54:48.650Z,53.90
2018-04-24T13:57:16.985Z,53.90
2018-04-24T13:59:45.246Z,53.60
2018-04-24T14:02:13.522Z,53.50
2018-04-24T14:04:41.800Z,53.50
2018-04-24T14:07:10.072Z,53.10
2018-04-24T14:09:38.332Z,53.50
2018-04-24T14:12:06.636Z,53.90
2018-04-24T14:14:35.629Z,54.80
2018-04-24T14:17:03.881Z,54.70
2018-04-24T14:19:32.173Z,54.70
2018-04-24T14:22:00.430Z,54.70
2018-04-24T14:24:29.456Z,54.30
2018-04-24T14:26:57.787Z,54.30
2018-04-24T14:29:26.080Z,54.40
2018-04-24T14:31:54.356Z,53.90
2018-04-24T14:34:22.719Z,53.90
2018-04-24T14:36:50.999Z,53.60
2018-04-24T14:39:19.309Z,53.80
2018-04-24T14:41:47.595Z,54.00
2018-04-24T14:44:15.872Z,53.40
2018-04-24T14:46:44.171Z,53.40
2018-04-24T14:49:12.430Z,53.60
2018-04-24T14:51:40.779Z,52.80
2018-04-24T14:54:08.958Z,53.30
2018-04-24T14:56:37.230Z,53.20
2018-04-24T14:59:05.482Z,52.40
2018-04-24T15:01:33.758Z,53.30
2018-04-24T15:04:02.038Z,52.20
2018-04-24T15:06:30.312Z,52.10
2018-04-24T15:08:58.598Z,52.40
2018-04-24T15:11:27.675Z,52.20
2018-04-24T15:13:55.930Z,51.50
2018-04-24T15:16:24.215Z,51.90
2018-04-24T15:18:52.492Z,52.00
2018-04-24T15:21:20.762Z,51.30
2018-04-24T15:23:49.029Z,50.10
2018-04-24T15:26:17.303Z,49.90
2018-04-24T15:28:45.579Z,49.80
2018-04-24T15:31:13.839Z,49.60
2018-04-24T15:33:42.091Z,49.80
2018-04-24T15:36:10.379Z,49.90
2018-04-24T15:38:38.644Z,50.30
2018-04-24T15:41:06.924Z,50.70
2018-04-24T15:43:35.202Z,50.30
2018-04-24T15:46:03.468Z,50.00
2018-04-24T15:48:32.510Z,49.60
2018-04-24T15:51:00.778Z,49.50
2018-04-24T15:53:29.029Z,48.90
2018-04-24T15:55:58.051Z,48.60
2018-04-24T15:58:26.323Z,48.60
2018-04-24T16:00:54.595Z,47.20
2018-04-24T16:03:22.839Z,47.90
2018-04-24T16:05:51.907Z,46.50
2018-04-24T16:08:20.204Z,46.50
2018-04-24T16:10:48.454Z,46.60
2018-04-24T16:13:16.735Z,45.30
2018-04-24T16:15:44.984Z,45.40
2018-04-24T16:18:14.006Z,45.30
2018-04-24T16:20:42.282Z,44.90
2018-04-24T16:23:10.951Z,45.20
2018-04-24T16:25:39.213Z,45.20
2018-04-24T16:28:07.476Z,45.30
2018-04-24T16:30:35.763Z,45.80
2018-04-24T16:33:04.094Z,45.10
2018-04-24T16:35:33.107Z,44.60
2018-04-24T16:38:01.391Z,44.60
2018-04-24T16:40:29.633Z,44.60
2018-04-24T16:42:58.674Z,44.70
2018-04-24T16:45:26.939Z,44.60
2018-04-24T16:47:55.217Z,44.90
2018-04-24T16:50:23.487Z,44.60
2018-04-24T16:52:51.730Z,45.00
2018-04-24T16:55:20.781Z,45.40
2018-04-24T16:57:49.056Z,45.30
2018-04-24T17:00:17.546Z,45.40
2018-04-24T17:02:45.830Z,45.70
2018-04-24T17:05:14.102Z,45.50
2018-04-24T17:07:42.349Z,45.80
2018-04-24T17:10:10.629Z,45.20
2018-04-24T17:12:38.909Z,45.40
2018-04-24T17:15:07.171Z,45.70
2018-04-24T17:17:35.443Z,45.50
2018-04-24T17:20:03.723Z,45.60
2018-04-24T17:22:32.013Z,45.50
2018-04-24T17:25:00.288Z,45.70
2018-04-24T17:27:28.563Z,46.10
2018-04-24T17:29:56.840Z,46.00
2018-04-24T17:32:25.117Z,46.60
2018-04-24T17:34:53.373Z,46.20
2018-04-24T17:37:21.655Z,46.90
2018-04-24T17:39:49.914Z,50.10
2018-04-24T17:42:18.248Z,51.80
2018-04-24T17:44:46.521Z,53.00
2018-04-24T17:47:14.806Z,53.60
2018-04-24T17:49:43.066Z,54.00
2018-04-24T17:52:11.344Z,54.60
2018-04-24T17:54:39.641Z,55.00
2018-04-24T17:57:07.924Z,55.20
2018-04-24T17:59:36.164Z,55.60
2018-04-24T18:02:04.415Z,55.60
2018-04-24T18:04:32.671Z,56.10
2018-04-24T18:07:02.547Z,56.40
2018-04-24T18:09:30.794Z,57.00
2018-04-24T18:12:00.220Z,56.80
2018-04-24T18:14:30.147Z,56.60
2018-04-24T18:16:58.479Z,56.60
2018-04-24T18:19:26.866Z,57.00
2018-04-24T18:21:55.113Z,57.40
2018-04-24T18:24:24.163Z,58.00
2018-04-24T18:26:52.423Z,58.00
2018-04-24T18:29:20.752Z,58.30
2018-04-24T18:31:49.778Z,58.20
2018-04-24T18:34:18.038Z,58.20
2018-04-24T18:36:46.306Z,58.00
2018-04-24T18:39:15.345Z,58.50
2018-04-24T18:41:43.640Z,58.50
2018-04-24T18:44:11.940Z,59.20
2018-04-24T18:46:40.970Z,60.20
2018-04-24T18:49:10.300Z,59.60
2018-04-24T18:51:38.577Z,59.80
2018-04-24T18:54:07.632Z,61.60
2018-04-24T18:56:36.651Z,61.10
2018-04-24T18:59:05.795Z,61.10
2018-04-24T19:01:34.067Z,62.50
2018-04-24T19:04:02.351Z,62.90
2018-04-24T19:06:31.390Z,63.80
2018-04-24T19:08:59.654Z,63.10
2018-04-24T19:11:28.942Z,63.10
2018-04-24T19:13:57.203Z,62.50
2018-04-24T19:16:25.562Z,63.60
2018-04-24T19:18:59.463Z,63.80
2018-04-24T19:21:27.735Z,64.20
2018-04-24T19:23:56.001Z,64.20
2018-04-24T19:26:24.274Z,63.80
2018-04-24T19:28:53.331Z,64.20
2018-04-24T19:31:27.383Z,64.20
2018-04-24T19:33:56.168Z,64.30
2018-04-24T19:36:24.446Z,64.60
2018-04-24T19:38:58.413Z,64.70
2018-04-24T19:41:32.318Z,64.50
2018-04-24T19:44:02.017Z,64.40
2018-04-24T19:46:30.338Z,64.40
2018-04-24T19:49:04.166Z,65.00
2018-04-24T19:51:32.451Z,65.30
2018-04-24T19:54:00.820Z,65.60
2018-04-24T19:56:29.148Z,65.50
2018-04-24T19:58:58.204Z,65.20
2018-04-24T20:01:26.481Z,65.20
2018-04-24T20:03:54.829Z,65.20
2018-04-24T20:06:23.169Z,65.50
2018-04-24T20:08:52.196Z,65.40
2018-04-24T20:11:20.589Z,65.30
2018-04-24T20:13:48.951Z,66.00
2018-04-24T20:16:17.240Z,65.60
2018-04-24T20:18:45.527Z,65.80
2018-04-24T20:21:13.805Z,65.70
2018-04-24T20:23:42.087Z,65.50
2018-04-24T20:26:10.375Z,65.30
2018-04-24T20:28:38.653Z,65.40
2018-04-24T20:31:06.925Z,65.50
2018-04-24T20:33:35.978Z,65.60
2018-04-24T20:36:04.259Z,65.70
2018-04-24T20:38:32.550Z,66.00
2018-04-24T20:41:00.807Z,66.10
2018-04-24T20:43:29.098Z,66.30
2018-04-24T20:45:57.388Z,66.50
2018-04-24T20:48:26.487Z,66.70
2018-04-24T20:50:54.774Z,66.70
2018-04-24T20:53:23.107Z,66.60
2018-04-24T20:55:52.119Z,67.90
2018-04-24T20:58:20.453Z,67.20
2018-04-24T21:00:49.561Z,68.10
2018-04-24T21:03:17.755Z,68.00
2018-04-24T21:05:46.096Z,68.80
2018-04-24T21:08:14.378Z,69.10
2018-04-24T21:10:42.644Z,69.10
2018-04-24T21:13:11.777Z,69.40
2018-04-24T21:15:39.994Z,69.40
2018-04-24T21:18:08.261Z,69.40
2018-04-24T21:20:36.538Z,69.20
2018-04-24T21:23:04.790Z,69.20
2018-04-24T21:25:33.054Z,69.20
2018-04-24T21:28:01.340Z,68.90
2018-04-24T21:30:29.601Z,69.00
2018-04-24T21:32:57.938Z,69.00
2018-04-24T21:35:26.194Z,69.30
2018-04-24T21:37:54.452Z,69.50
2018-04-24T21:40:22.790Z,69.90
2018-04-24T21:42:51.825Z,69.70
2018-04-24T21:45:20.132Z,69.70
2018-04-24T21:47:48.414Z,69.80
2018-04-24T21:50:16.698Z,70.10
2018-04-24T21:52:45.722Z,70.20
2018-04-24T21:55:14.140Z,70.10
2018-04-24T21:57:42.432Z,70.00
2018-04-24T22:00:10.736Z,69.70
2018-04-24T22:02:39.747Z,69.20
2018-04-24T22:05:08.034Z,69.20
2018-04-24T22:07:36.323Z,69.10
2018-04-24T22:10:04.576Z,69.40
2018-04-24T22:12:32.873Z,69.60
2018-04-24T22:15:01.110Z,70.00
2018-04-24T22:17:29.401Z,70.50
2018-04-24T22:19:58.422Z,71.00
2018-04-24T22:22:26.725Z,71.00
2018-04-24T22:24:55.734Z,72.10
2018-04-24T22:27:24.842Z,71.70
2018-04-24T22:29:53.076Z,71.60
2018-04-24T22:32:21.340Z,71.80
2018-04-24T22:34:49.606Z,72.20
2018-04-24T22:37:17.882Z,72.20
2018-04-24T22:39:46.157Z,72.20
2018-04-24T22:42:14.460Z,72.50
2018-04-24T22:44:42.750Z,72.30
2018-04-24T22:47:11.021Z,72.00
2018-04-24T22:49:39.277Z,71.80
2018-04-24T22:52:07.532Z,71.50
2018-04-24T22:54:35.797Z,71.00
2018-04-24T22:57:04.102Z,71.00
2018-04-24T22:59:32.360Z,70.60
2018-04-24T23:02:00.645Z,70.70
2018-04-24T23:04:28.897Z,70.70
2018-04-24T23:06:57.177Z,70.60
2018-04-24T23:09:26.192Z,71.00
2018-04-24T23:12:06.389Z,71.00
2018-04-24T23:14:46.586Z,70.90
2018-04-24T23:17:26.798Z,71.10
2018-04-24T23:20:06.879Z,71.10
2018-04-24T23:22:35.946Z,70.90
2018-04-24T23:25:04.211Z,70.90
2018-04-24T23:27:32.466Z,70.80
2018-04-24T23:30:00.733Z,70.90
2018-04-24T23:32:28.982Z,70.90
2018-04-24T23:34:58.006Z,71.40
2018-04-24T23:37:26.274Z,71.40
2018-04-24T23:39:54.558Z,71.20
2018-04-24T23:42:22.821Z,71.00
2018-04-24T23:44:51.093Z,71.40
2018-04-24T23:47:19.376Z,71.60
2018-04-24T23:49:47.625Z,71.80
2018-04-24T23:52:15.873Z,72.20
2018-04-24T23:54:44.139Z,71.40
2018-04-24T23:57:12.416Z,71.60
2018-04-24T23:59:40.669Z,71.70
